Time;durP1;ratioP1;P1;durP2;ratioP2;P2;SDS_P1;SDS_P2;PMS_P1;PMS_P2;Temp;Humidity;BMP_temperature;BMP_pressure;BME280_temperature;BME280_humidity;BME280_pressure;Samples;Min_cycle;Max_cycle;Signal;HPM_P1;HPM_P2
2022/09/03 00:00:18;;;;;;;;;5.75;5.75;;;;;20.88;62.28;100093.81;5012735;28;46221;-75
2022/09/03 00:02:51;;;;;;;;;4.50;4.50;;;;;20.87;62.58;100084.03;5012843;28;45655;-75
2022/09/03 00:05:28;;;;;;;;;6.25;5.00;;;;;20.80;62.64;100084.59;5013235;28;45476;-75
2022/09/03 00:07:54;;;;;;;;;2.75;2.75;;;;;20.77;62.91;100091.91;5011591;28;45555;-76
2022/09/03 00:10:39;;;;;;;;;3.00;3.00;;;;;20.75;62.74;100093.81;5010988;28;45606;-74
2022/09/03 00:13:07;;;;;;;;;2.00;2.00;;;;;20.71;62.97;100089.66;5013413;28;45536;-75
2022/09/03 00:15:34;;;;;;;;;6.00;5.00;;;;;20.71;63.08;100091.44;5012633;28;45616;-75
2022/09/03 00:18:09;;;;;;;;;5.00;3.50;;;;;20.67;63.22;100096.19;5013179;28;45732;-76
2022/09/03 00:20:41;;;;;;;;;5.75;5.50;;;;;20.65;62.91;100078.44;5012020;28;45570;-75
2022/09/03 00:23:11;;;;;;;;;2.75;2.50;;;;;20.66;62.91;100083.72;5012127;28;45888;-75
2022/09/03 00:26:11;;;;;;;;;2.50;2.50;;;;;20.61;63.12;100085.84;4986375;28;45405;-76
2022/09/03 00:28:50;;;;;;;;;4.75;4.75;;;;;20.58;63.34;100084.22;5017915;28;45516;-76
2022/09/03 00:31:31;;;;;;;;;5.25;5.00;;;;;20.55;62.98;100080.91;5054116;27;46559;-75
2022/09/03 00:34:19;;;;;;;;;5.00;5.00;;;;;20.55;63.30;100087.13;5044196;28;45533;-76
2022/09/03 00:36:45;;;;;;;;;5.50;5.50;;;;;20.49;63.19;100065.22;5054999;28;45481;-75
2022/09/03 00:39:19;;;;;;;;;2.50;2.00;;;;;20.57;63.08;100084.34;5055345;28;45511;-76
2022/09/03 00:42:12;;;;;;;;;3.25;2.50;;;;;20.55;63.11;100075.53;5054769;28;46050;-76
2022/09/03 00:44:53;;;;;;;;;2.75;2.75;;;;;20.57;63.03;100073.59;5055238;28;45390;-76
2022/09/03 00:47:40;;;;;;;;;3.25;3.25;;;;;20.58;62.74;100075.31;5054277;28;45495;-75
2022/09/03 00:50:28;;;;;;;;;5.75;3.00;;;;;20.52;62.80;100081.13;5055587;28;45355;-74
2022/09/03 00:53:18;;;;;;;;;4.00;4.00;;;;;20.50;62.82;100089.28;5054465;28;46368;-76
2022/09/03 00:55:57;;;;;;;;;6.00;6.00;;;;;20.41;63.22;100085.41;5047815;28;45355;-76
2022/09/03 00:58:54;;;;;;;;;5.25;5.25;;;;;20.36;63.03;100086.66;5054610;28;45395;-75
2022/09/03 01:01:32;;;;;;;;;4.50;4.00;;;;;20.31;63.17;100083.47;5053720;28;45440;-75
2022/09/03 01:04:22;;;;;;;;;4.75;4.50;;;;;20.24;62.84;100088.41;5054850;28;45516;-74
2022/09/03 01:07:06;;;;;;;;;5.00;3.00;;;;;20.26;63.41;100091.81;5052145;28;45655;-76
2022/09/03 01:09:41;;;;;;;;;5.00;3.00;;;;;20.27;63.34;100093.56;5045527;28;45587;-76
2022/09/03 01:12:30;;;;;;;;;2.00;2.00;;;;;20.24;63.19;100099.13;5054675;28;45583;-75
2022/09/03 01:14:59;;;;;;;;;2.00;2.00;;;;;20.22;63.56;100098.34;5053762;28;45511;-74
2022/09/03 01:17:46;;;;;;;;;2.50;2.00;;;;;20.20;63.68;100093.09;5054454;28;45487;-75
2022/09/03 01:20:46;;;;;;;;;2.75;2.75;;;;;20.23;63.54;100092.03;5064247;28;45474;-75
2022/09/03 01:23:41;;;;;;;;;0.00;0.00;;;;;20.17;63.66;100077.19;5074826;27;45386;-75
2022/09/03 01:26:33;;;;;;;;;5.00;5.00;;;;;20.24;63.79;100093.75;5067286;28;45572;-75
2022/09/03 01:29:06;;;;;;;;;3.00;1.75;;;;;20.23;63.79;100086.66;5075029;28;45462;-76
2022/09/03 01:31:49;;;;;;;;;2.25;2.25;;;;;20.22;64.19;100087.63;5058239;28;45655;-75
2022/09/03 01:34:17;;;;;;;;;4.50;4.50;;;;;20.19;64.68;100095.88;5075124;28;45612;-75
2022/09/03 01:37:04;;;;;;;;;3.00;1.75;;;;;20.16;64.60;100093.41;5073512;27;46029;-75
2022/09/03 01:39:44;;;;;;;;;2.00;1.75;;;;;20.18;64.88;100094.19;5074314;28;45482;-75
2022/09/03 01:43:12;;;;;;;;;0.00;0.00;;;;;20.20;64.71;100092.25;5073336;28;45480;-75
2022/09/03 01:45:47;;;;;;;;;5.00;2.50;;;;;20.21;64.72;100096.66;5030693;28;45413;-74
2022/09/03 01:48:39;;;;;;;;;4.00;4.00;;;;;20.22;64.52;100090.31;5074422;28;45404;-75
2022/09/03 01:51:24;;;;;;;;;6.00;2.75;;;;;20.20;65.25;100086.88;5073357;28;45457;-75
2022/09/03 01:54:15;;;;;;;;;4.00;4.00;;;;;20.22;65.03;100091.19;5072791;27;45527;-75
2022/09/03 01:56:58;;;;;;;;;3.50;3.50;;;;;20.22;64.58;100087.63;5071804;28;45624;-76
2022/09/03 01:59:32;;;;;;;;;3.00;3.00;;;;;20.21;65.29;100091.28;5073945;27;46947;-76
2022/09/03 02:02:20;;;;;;;;;4.00;4.00;;;;;20.19;65.80;100091.41;5056935;28;45480;-76
2022/09/03 02:05:23;;;;;;;;;5.00;5.00;;;;;20.17;65.76;100087.94;5059614;28;45380;-75
2022/09/03 02:08:00;;;;;;;;;2.25;2.25;;;;;20.15;65.95;100095.25;5060763;28;45708;-75
2022/09/03 02:10:43;;;;;;;;;1.25;1.00;;;;;20.16;65.61;100088.03;5072526;28;46161;-75
2022/09/03 02:13:27;;;;;;;;;4.75;4.00;;;;;20.19;65.99;100087.84;5073102;27;45327;-75
2022/09/03 02:15:56;;;;;;;;;2.00;2.00;;;;;20.15;66.15;100094.38;5073868;28;45378;-75
2022/09/03 02:18:30;;;;;;;;;3.00;3.00;;;;;20.13;66.24;100083.72;5073591;28;45440;-74
2022/09/03 02:20:57;;;;;;;;;2.75;2.25;;;;;20.10;66.62;100086.63;5072379;28;46217;-75
2022/09/03 02:23:24;;;;;;;;;5.00;4.00;;;;;20.10;66.44;100085.78;5073275;28;45562;-74
2022/09/03 02:25:56;;;;;;;;;3.50;2.00;;;;;20.11;67.14;100087.50;5063350;28;45489;-73
2022/09/03 02:28:22;;;;;;;;;2.50;2.50;;;;;20.06;67.49;100085.13;5077282;27;45526;-75
2022/09/03 02:30:48;;;;;;;;;2.00;2.00;;;;;20.00;67.35;100086.41;5072637;28;46662;-75
2022/09/03 02:33:14;;;;;;;;;3.50;3.50;;;;;20.02;67.76;100095.19;5073851;28;45433;-75
2022/09/03 02:35:41;;;;;;;;;1.00;1.00;;;;;19.95;68.21;100088.53;5073530;28;45402;-74
2022/09/03 02:38:18;;;;;;;;;6.00;4.50;;;;;19.90;68.58;100096.00;5074245;28;45512;-75
2022/09/03 02:40:44;;;;;;;;;7.25;6.25;;;;;19.85;68.91;100106.19;5067622;28;45686;-74
2022/09/03 02:43:33;;;;;;;;;6.50;5.50;;;;;19.72;70.01;100095.38;5072365;27;45480;-74
2022/09/03 02:46:06;;;;;;;;;4.00;4.00;;;;;19.67;70.26;100098.34;5073656;27;45418;-74
2022/09/03 02:48:32;;;;;;;;;0.75;0.75;;;;;19.63;70.34;100095.97;5069519;28;45489;-75
2022/09/03 02:50:57;;;;;;;;;11.00;7.00;;;;;19.56;71.00;100097.38;5072800;28;46700;-75
2022/09/03 02:53:23;;;;;;;;;6.00;5.25;;;;;19.61;71.06;100100.59;5072939;28;45811;-75
2022/09/03 02:55:48;;;;;;;;;6.50;6.50;;;;;19.54;71.31;100092.09;5072966;28;45443;-75
2022/09/03 02:58:14;;;;;;;;;7.00;7.00;;;;;19.55;71.25;100101.00;5072215;28;45601;-75
2022/09/03 03:00:39;;;;;;;;;7.00;1.75;;;;;19.52;71.26;100091.31;5070331;27;45438;-75
2022/09/03 03:03:05;;;;;;;;;9.75;8.50;;;;;19.51;71.87;100090.47;5073566;27;45394;-75
2022/09/03 03:05:50;;;;;;;;;6.00;6.00;;;;;19.48;72.15;100095.16;5072065;28;45430;-75
2022/09/03 03:08:20;;;;;;;;;12.50;5.75;;;;;19.42;72.31;100092.88;5073578;28;45464;-75
2022/09/03 03:10:46;;;;;;;;;6.25;6.25;;;;;19.40;72.47;100095.66;5072978;28;46191;-74
2022/09/03 03:13:13;;;;;;;;;6.25;6.00;;;;;19.40;72.97;100092.13;5075308;28;45447;-73
2022/09/03 03:15:38;;;;;;;;;6.75;6.75;;;;;19.35;72.94;100090.59;5074989;27;45418;-74
2022/09/03 03:18:04;;;;;;;;;9.25;9.25;;;;;19.37;73.01;100092.31;5076593;27;45374;-74
2022/09/03 03:20:29;;;;;;;;;5.50;5.25;;;;;19.42;72.84;100090.19;5062699;28;46163;-75
2022/09/03 03:22:54;;;;;;;;;7.25;5.00;;;;;19.29;72.49;100074.91;5076626;28;45605;-75
2022/09/03 03:25:20;;;;;;;;;14.00;9.25;;;;;19.44;72.85;100102.53;5076095;27;45468;-76
2022/09/03 03:27:45;;;;;;;;;5.75;4.50;;;;;19.41;73.00;100096.53;5076367;28;45521;-75
2022/09/03 03:30:12;;;;;;;;;12.25;7.50;;;;;19.41;73.34;100099.22;5075052;27;45554;-75
2022/09/03 03:32:38;;;;;;;;;6.50;5.75;;;;;19.39;73.07;100098.44;5076062;28;45446;-76
2022/09/03 03:35:05;;;;;;;;;6.25;4.75;;;;;19.38;73.09;100099.41;5076333;28;45484;-75
2022/09/03 03:37:31;;;;;;;;;9.00;6.00;;;;;19.32;73.52;100095.28;5076504;27;45531;-75
2022/09/03 03:39:57;;;;;;;;;6.25;5.75;;;;;19.30;73.55;100092.72;5066546;28;47408;-75
2022/09/03 03:42:22;;;;;;;;;7.25;5.00;;;;;19.25;73.93;100086.81;5073618;27;45449;-75
2022/09/03 03:44:47;;;;;;;;;8.50;5.50;;;;;19.31;73.93;100089.09;5076048;28;45469;-75
2022/09/03 03:47:15;;;;;;;;;10.25;8.50;;;;;19.31;73.70;100088.19;5075481;28;45552;-75
2022/09/03 03:49:41;;;;;;;;;9.75;6.50;;;;;19.34;73.84;100082.66;5075223;28;45522;-74
2022/09/03 03:52:06;;;;;;;;;9.00;7.00;;;;;19.29;73.91;100079.41;5076036;28;45473;-74
2022/09/03 03:54:32;;;;;;;;;6.75;5.25;;;;;19.33;73.96;100084.47;5076669;28;45472;-75
2022/09/03 03:56:57;;;;;;;;;7.25;6.25;;;;;19.34;74.09;100086.22;5074756;28;45434;-77
2022/09/03 03:59:22;;;;;;;;;6.75;3.00;;;;;19.31;73.93;100080.16;5074994;28;45548;-75
2022/09/03 04:01:49;;;;;;;;;6.00;6.00;;;;;19.27;74.35;100075.97;5065557;27;45414;-75
2022/09/03 04:04:15;;;;;;;;;9.00;7.00;;;;;19.25;74.57;100083.25;5076906;28;45411;-76
2022/09/03 04:06:40;;;;;;;;;1.00;0.25;;;;;19.24;74.36;100071.69;5076054;28;45398;-75
2022/09/03 04:09:06;;;;;;;;;7.00;7.00;;;;;19.27;74.54;100073.31;5075749;28;46055;-76
2022/09/03 04:11:31;;;;;;;;;6.25;6.25;;;;;19.30;73.78;100076.63;5074147;28;45347;-75
2022/09/03 04:13:56;;;;;;;;;7.25;6.25;;;;;19.31;74.24;100075.69;5075091;28;45602;-75
2022/09/03 04:16:27;;;;;;;;;7.00;6.00;;;;;19.34;74.07;100080.84;5076766;28;45436;-75
2022/09/03 04:18:54;;;;;;;;;5.50;5.25;;;;;19.38;73.48;100089.53;5074554;28;48504;-74
2022/09/03 04:21:25;;;;;;;;;9.00;7.00;;;;;19.40;73.87;100084.94;5075632;28;45603;-74
2022/09/03 04:23:51;;;;;;;;;7.50;5.00;;;;;19.42;73.51;100091.06;5076121;27;45413;-75
2022/09/03 04:26:23;;;;;;;;;6.00;6.00;;;;;19.44;73.49;100082.94;5075084;28;45737;-75
2022/09/03 04:28:48;;;;;;;;;10.25;7.00;;;;;19.42;73.88;100079.47;5075174;28;45486;-74
2022/09/03 04:31:16;;;;;;;;;7.50;7.50;;;;;19.44;73.69;100082.94;5074969;28;45401;-75
2022/09/03 04:33:42;;;;;;;;;5.75;2.00;;;;;19.44;73.39;100082.94;5076301;28;45548;-75
2022/09/03 04:36:10;;;;;;;;;6.00;6.00;;;;;19.41;73.95;100085.81;5075881;28;45483;-75
2022/09/03 04:38:39;;;;;;;;;7.50;6.50;;;;;19.39;73.80;100085.91;5076234;28;46542;-73
2022/09/03 04:41:06;;;;;;;;;7.25;6.25;;;;;19.33;73.70;100075.59;5074082;28;45433;-75
2022/09/03 04:43:32;;;;;;;;;6.00;5.00;;;;;19.37;74.11;100081.59;5075151;27;45456;-75
2022/09/03 04:45:58;;;;;;;;;7.50;5.25;;;;;19.35;74.03;100081.69;5075322;28;45395;-74
2022/09/03 04:48:25;;;;;;;;;9.75;7.25;;;;;19.27;74.12;100076.84;5075728;27;45530;-73
2022/09/03 04:50:50;;;;;;;;;9.00;7.25;;;;;19.29;74.41;100084.78;5075053;28;45318;-75
2022/09/03 04:53:15;;;;;;;;;8.50;6.25;;;;;19.29;74.09;100082.09;5075432;28;45475;-75
2022/09/03 04:55:41;;;;;;;;;8.50;8.50;;;;;19.32;73.99;100088.09;5075015;28;46050;-75
2022/09/03 04:58:07;;;;;;;;;11.25;7.00;;;;;19.34;74.38;100088.88;5075419;28;45587;-75
2022/09/03 05:00:34;;;;;;;;;10.25;9.25;;;;;19.33;74.67;100089.84;5068916;28;45500;-75
2022/09/03 05:03:00;;;;;;;;;5.25;5.00;;;;;19.32;73.93;100092.63;5072720;28;45437;-75
2022/09/03 05:05:25;;;;;;;;;8.00;6.00;;;;;19.30;73.74;100079.31;5074852;28;45310;-75
2022/09/03 05:07:52;;;;;;;;;7.75;5.50;;;;;19.33;74.08;100086.31;5075137;28;45537;-74
2022/09/03 05:10:20;;;;;;;;;5.50;5.50;;;;;19.34;74.03;100091.56;5073489;28;45395;-75
2022/09/03 05:12:48;;;;;;;;;5.50;5.50;;;;;19.34;73.78;100096.03;5074467;27;45523;-75
2022/09/03 05:15:14;;;;;;;;;5.75;5.75;;;;;19.34;74.20;100101.41;5072372;28;45604;-74
2022/09/03 05:17:39;;;;;;;;;5.50;5.50;;;;;19.31;74.08;100089.09;5074896;28;45360;-75
2022/09/03 05:20:08;;;;;;;;;4.75;4.75;;;;;19.30;73.98;100099.91;5074268;28;45554;-74
2022/09/03 05:22:34;;;;;;;;;6.75;6.75;;;;;19.31;74.37;100096.25;5055563;28;45407;-75
2022/09/03 05:24:59;;;;;;;;;13.25;8.00;;;;;19.22;74.13;100088.78;5077625;27;45545;-75
2022/09/03 05:27:24;;;;;;;;;6.00;5.00;;;;;19.25;74.48;100093.94;5074055;28;45581;-76
2022/09/03 05:29:50;;;;;;;;;7.00;7.00;;;;;19.24;74.54;100098.47;5072877;27;45517;-74
2022/09/03 05:32:16;;;;;;;;;6.00;5.75;;;;;19.24;74.21;100098.47;5073574;28;45440;-76
2022/09/03 05:34:42;;;;;;;;;5.50;5.50;;;;;19.28;74.00;100105.34;5061998;28;45497;-77
2022/09/03 05:37:08;;;;;;;;;7.50;6.00;;;;;19.26;74.41;100101.03;5061825;28;47083;-74
2022/09/03 05:39:33;;;;;;;;;11.00;9.75;;;;;19.27;74.58;100102.78;5073853;28;45638;-75
2022/09/03 05:41:58;;;;;;;;;9.75;6.00;;;;;19.29;74.11;100107.06;5074112;27;45570;-75
2022/09/03 05:44:24;;;;;;;;;7.00;5.75;;;;;19.27;74.45;100113.50;5073861;28;45618;-75
2022/09/03 05:46:50;;;;;;;;;7.75;6.50;;;;;19.29;74.12;100107.06;5074876;28;45665;-75
2022/09/03 05:49:16;;;;;;;;;6.50;3.50;;;;;19.40;73.63;100124.28;5074389;28;45670;-76
2022/09/03 05:51:42;;;;;;;;;9.50;7.25;;;;;19.39;73.97;100127.91;5073916;27;45443;-76
2022/09/03 05:54:08;;;;;;;;;6.00;5.00;;;;;19.40;73.77;100118.91;5074710;28;45555;-75
2022/09/03 05:56:35;;;;;;;;;6.50;3.50;;;;;19.41;73.73;100117.97;5073470;28;46427;-75
2022/09/03 05:59:05;;;;;;;;;6.25;6.25;;;;;19.47;73.85;100128.28;5073514;28;45441;-77
2022/09/03 06:01:33;;;;;;;;;7.00;4.75;;;;;19.48;73.63;100132.66;5070082;28;45454;-75
2022/09/03 06:04:00;;;;;;;;;11.25;6.75;;;;;19.52;73.34;100140.44;5074490;28;45587;-76
2022/09/03 06:06:27;;;;;;;;;12.75;6.00;;;;;19.45;73.51;100143.56;5075471;28;45460;-75
2022/09/03 06:08:56;;;;;;;;;7.00;6.00;;;;;19.52;73.52;100142.25;5075149;27;45549;-83
2022/09/03 06:11:25;;;;;;;;;6.50;6.50;;;;;19.51;73.48;100140.50;5076745;28;45736;-76
2022/09/03 06:13:51;;;;;;;;;10.00;7.00;;;;;19.48;73.39;100144.25;5075551;28;45456;-74
2022/09/03 06:16:16;;;;;;;;;5.25;5.25;;;;;19.41;73.94;100147.44;5074240;27;46313;-74
2022/09/03 06:18:42;;;;;;;;;5.00;5.00;;;;;19.43;73.72;100145.50;5074245;28;45518;-75
2022/09/03 06:21:07;;;;;;;;;6.25;6.25;;;;;19.41;73.71;100140.25;5074017;28;45362;-76
2022/09/03 06:23:34;;;;;;;;;5.75;5.75;;;;;19.52;73.69;100155.63;5074660;27;45475;-75
2022/09/03 06:26:07;;;;;;;;;11.75;10.25;;;;;19.49;73.35;100161.19;5073881;28;46132;-76
2022/09/03 06:28:34;;;;;;;;;5.25;5.25;;;;;19.50;73.36;100160.25;5074829;28;45507;-75
2022/09/03 06:31:02;;;;;;;;;10.25;6.75;;;;;19.65;73.14;100145.00;5074758;27;45542;-75
2022/09/03 06:33:33;;;;;;;;;10.75;9.50;;;;;19.86;72.57;100149.00;5061027;28;45563;-76
2022/09/03 06:35:59;;;;;;;;;7.00;5.50;;;;;20.05;71.69;100158.50;5074077;28;45452;-75
2022/09/03 06:38:27;;;;;;;;;5.75;5.00;;;;;20.16;71.24;100153.31;5075104;28;45376;-77
2022/09/03 06:41:02;;;;;;;;;11.00;8.50;;;;;20.27;70.67;100149.00;5074367;27;45500;-75
2022/09/03 06:43:31;;;;;;;;;6.00;6.00;;;;;20.40;70.14;100158.81;5074124;27;45771;-75
2022/09/03 06:46:05;;;;;;;;;8.25;7.50;;;;;20.52;69.96;100153.59;5073565;27;46103;-76
2022/09/03 06:48:33;;;;;;;;;7.50;6.00;;;;;20.63;69.48;100148.34;5071496;28;45444;-75
2022/09/03 06:51:03;;;;;;;;;9.00;6.25;;;;;20.72;68.99;100155.78;5072646;27;45417;-76
2022/09/03 06:53:37;;;;;;;;;9.00;6.00;;;;;20.89;68.44;100157.31;5073123;27;45578;-76
2022/09/03 06:56:06;;;;;;;;;8.50;7.25;;;;;21.05;67.97;100151.72;5073867;27;45422;-76
2022/09/03 06:58:37;;;;;;;;;10.50;7.00;;;;;21.22;66.90;100161.25;5089857;27;45366;-76
2022/09/03 07:01:06;;;;;;;;;6.00;6.00;;;;;21.35;66.13;100163.94;5064652;27;45434;-76
2022/09/03 07:03:34;;;;;;;;;5.00;5.00;;;;;21.40;66.19;100169.00;5068883;28;45707;-85
2022/09/03 07:06:05;;;;;;;;;9.50;7.00;;;;;21.56;65.49;100152.63;5073681;27;45420;-76
2022/09/03 07:08:32;;;;;;;;;5.25;5.25;;;;;21.74;64.92;100156.69;5074417;27;45377;-76
2022/09/03 07:11:09;;;;;;;;;7.00;7.00;;;;;21.73;64.60;100154.97;5073462;28;45396;-75
2022/09/03 07:13:36;;;;;;;;;6.00;5.00;;;;;21.67;64.36;100160.78;5070842;28;45360;-76
2022/09/03 07:16:04;;;;;;;;;9.00;8.00;;;;;21.88;63.88;100154.78;5074311;28;46120;-79
2022/09/03 07:18:31;;;;;;;;;6.75;6.75;;;;;22.34;62.64;100148.69;5074095;28;45316;-77
2022/09/03 07:21:20;;;;;;;;;7.50;7.50;;;;;23.31;59.99;100145.72;5073599;27;45524;-77
2022/09/03 07:23:47;;;;;;;;;10.00;9.25;;;;;24.57;57.08;100153.34;5064199;27;45548;-75
2022/09/03 07:26:18;;;;;;;;;5.75;5.75;;;;;25.31;54.43;100146.97;5073495;27;45542;-77
2022/09/03 07:28:45;;;;;;;;;8.00;5.00;;;;;26.21;52.43;100158.75;5073948;28;45485;-76
2022/09/03 07:31:14;;;;;;;;;6.75;6.75;;;;;26.85;51.02;100153.72;5074897;27;45496;-79
2022/09/03 07:33:41;;;;;;;;;4.50;4.50;;;;;28.07;47.84;100144.63;5071170;28;45593;-75
2022/09/03 07:36:09;;;;;;;;;5.50;5.00;;;;;28.53;45.35;100151.66;5074609;28;47071;-78
2022/09/03 07:38:35;;;;;;;;;6.00;6.00;;;;;29.02;45.00;100155.78;5073501;28;45457;-75
2022/09/03 07:41:03;;;;;;;;;3.50;2.00;;;;;29.72;43.25;100158.31;5072191;27;45825;-76
2022/09/03 07:43:34;;;;;;;;;7.00;6.00;;;;;30.40;41.71;100161.91;5073445;27;45660;-77
2022/09/03 07:46:02;;;;;;;;;5.75;4.00;;;;;31.06;40.21;100156.41;5072758;28;45583;-77
2022/09/03 07:48:27;;;;;;;;;5.50;5.50;;;;;30.83;39.83;100161.72;5073043;27;45355;-79
2022/09/03 07:50:59;;;;;;;;;5.25;4.50;;;;;30.72;39.80;100159.34;5073317;27;45467;-77
2022/09/03 07:53:26;;;;;;;;;6.00;5.75;;;;;31.20;39.28;100165.75;5073083;27;45414;-76
2022/09/03 07:55:51;;;;;;;;;3.50;3.50;;;;;31.96;38.82;100166.13;5071750;27;46156;-76
2022/09/03 07:58:17;;;;;;;;;3.25;3.00;;;;;32.53;36.98;100167.59;5074705;28;45456;-74
2022/09/03 08:00:42;;;;;;;;;2.75;2.75;;;;;32.57;36.33;100165.38;5076039;27;45425;-74
2022/09/03 08:03:08;;;;;;;;;4.50;4.50;;;;;32.62;36.26;100157.47;5076535;27;45393;-76
2022/09/03 08:05:35;;;;;;;;;4.50;4.50;;;;;32.69;36.37;100163.06;5074494;27;46095;-74
2022/09/03 08:08:04;;;;;;;;;7.25;5.50;;;;;32.77;37.00;100160.25;5069592;28;45381;-76
2022/09/03 08:10:34;;;;;;;;;4.25;3.25;;;;;33.16;35.73;100164.63;5065106;28;45418;-76
2022/09/03 08:12:59;;;;;;;;;3.00;3.00;;;;;33.74;35.36;100153.88;5072808;28;45322;-76
2022/09/03 08:15:25;;;;;;;;;4.50;4.00;;;;;34.34;34.42;100172.88;5076232;27;46182;-76
2022/09/03 08:17:51;;;;;;;;;7.00;5.00;;;;;34.59;34.54;100175.19;5075086;28;45434;-75
2022/09/03 08:20:16;;;;;;;;;2.00;2.00;;;;;34.88;32.18;100179.72;5075842;27;45480;-75
2022/09/03 08:22:42;;;;;;;;;6.25;3.75;;;;;34.61;33.33;100171.22;5070540;28;45847;-75
2022/09/03 08:25:08;;;;;;;;;5.25;3.00;;;;;34.27;33.47;100193.88;5076236;28;45421;-75
2022/09/03 08:27:34;;;;;;;;;4.00;4.00;;;;;34.09;33.98;100175.97;5074690;28;45502;-76
2022/09/03 08:30:00;;;;;;;;;10.75;10.75;;;;;34.41;33.58;100179.28;5073752;28;46888;-75
2022/09/03 08:32:26;;;;;;;;;7.00;4.00;;;;;34.53;33.31;100188.66;5075719;27;45400;-76
2022/09/03 08:34:51;;;;;;;;;5.75;4.00;;;;;34.70;32.42;100185.66;5076247;28;45370;-76
2022/09/03 08:37:17;;;;;;;;;2.00;2.00;;;;;34.74;32.68;100184.22;5074388;28;45544;-77
2022/09/03 08:39:43;;;;;;;;;4.00;4.00;;;;;34.45;33.19;100190.69;5073210;28;45398;-77
2022/09/03 08:42:32;;;;;;;;;4.00;4.00;;;;;34.10;33.23;100209.69;5061759;28;45699;-77
2022/09/03 08:45:01;;;;;;;;;5.00;5.00;;;;;33.14;34.19;100198.72;5063247;28;45803;-78
2022/09/03 08:47:33;;;;;;;;;5.00;5.00;;;;;32.55;35.01;100203.84;5064992;28;45694;-77
2022/09/03 08:50:18;;;;;;;;;2.75;2.75;;;;;32.26;36.74;100215.47;5074979;28;45777;-74
2022/09/03 08:53:06;;;;;;;;;4.00;4.00;;;;;31.97;37.10;100219.72;5073370;28;45486;-75
2022/09/03 08:55:35;;;;;;;;;4.00;4.00;;;;;31.43;38.32;100217.72;5072280;28;46222;-74
2022/09/03 08:58:14;;;;;;;;;5.50;5.50;;;;;31.26;38.14;100222.34;5074265;28;45422;-76
2022/09/03 09:01:16;;;;;;;;;4.00;4.00;;;;;31.46;39.08;100221.97;5073280;28;45534;-76
2022/09/03 09:04:11;;;;;;;;;1.00;1.00;;;;;32.52;36.28;100219.75;5075877;28;45344;-77
2022/09/03 09:06:58;;;;;;;;;2.00;2.00;;;;;32.32;36.35;100222.13;5075628;27;46195;-77
2022/09/03 09:09:32;;;;;;;;;2.50;2.50;;;;;32.92;36.51;100217.75;5075691;28;45464;-77
2022/09/03 09:12:20;;;;;;;;;5.50;5.50;;;;;33.85;35.00;100220.19;5075355;28;45417;-77
2022/09/03 09:14:54;;;;;;;;;3.00;3.00;;;;;34.25;33.37;100206.94;5075935;28;45488;-75
2022/09/03 09:17:37;;;;;;;;;6.75;5.50;;;;;34.24;33.69;100213.44;5075095;28;45385;-77
2022/09/03 09:20:17;;;;;;;;;1.00;1.00;;;;;33.91;34.26;100227.63;5074571;28;45594;-76
2022/09/03 09:22:58;;;;;;;;;0.00;0.00;;;;;34.02;33.04;100229.03;5073747;28;45571;-77
2022/09/03 09:25:25;;;;;;;;;3.00;3.00;;;;;34.02;34.04;100221.63;5074392;28;45421;-77
2022/09/03 09:28:09;;;;;;;;;2.00;2.00;;;;;34.46;33.76;100215.19;5074883;28;45481;-77
2022/09/03 09:30:36;;;;;;;;;1.00;1.00;;;;;35.06;32.22;100223.13;5073977;28;45432;-80
2022/09/03 09:33:01;;;;;;;;;1.75;1.75;;;;;34.38;33.03;100218.06;5075147;28;45510;-79
2022/09/03 09:35:27;;;;;;;;;4.75;4.00;;;;;33.68;34.18;100216.75;5076135;28;45614;-78
2022/09/03 09:37:55;;;;;;;;;2.00;2.00;;;;;32.68;35.05;100225.13;5074110;28;51356;-76
2022/09/03 09:40:33;;;;;;;;;2.00;2.00;;;;;31.71;37.46;100241.88;5073663;28;45435;-77
2022/09/03 09:43:14;;;;;;;;;3.25;3.25;;;;;31.24;38.23;100235.31;5070250;28;45445;-77
2022/09/03 09:45:45;;;;;;;;;4.50;3.00;;;;;30.62;39.31;100235.84;5074447;28;45331;-77
2022/09/03 09:48:36;;;;;;;;;2.00;2.00;;;;;30.19;40.67;100240.53;5075335;28;45494;-79
2022/09/03 09:51:08;;;;;;;;;4.00;4.00;;;;;29.85;41.09;100245.03;5073334;27;45490;-77
2022/09/03 09:53:34;;;;;;;;;4.00;3.00;;;;;29.87;40.80;100232.09;5070827;28;45328;-77
2022/09/03 09:56:01;;;;;;;;;2.25;1.00;;;;;29.54;41.73;100240.06;5074343;28;45287;-77
2022/09/03 09:58:31;;;;;;;;;3.50;3.50;;;;;28.94;42.67;100240.00;5073461;28;47390;-76
2022/09/03 10:01:13;;;;;;;;;4.75;3.75;;;;;28.96;43.39;100246.16;5073474;28;45460;-72
2022/09/03 10:03:54;;;;;;;;;2.00;2.00;;;;;29.05;43.21;100250.63;5061047;28;45390;-78
2022/09/03 10:09:16;;;;;;;;;1.00;1.00;;;;;29.11;42.43;100241.84;5088715;28;45882;-84
2022/09/03 10:11:50;;;;;;;;;2.75;2.75;;;;;29.33;42.84;100254.06;5074794;28;45283;-75
2022/09/03 10:14:31;;;;;;;;;4.00;2.50;;;;;29.12;41.71;100238.09;5074247;28;45608;-79
2022/09/03 10:17:09;;;;;;;;;2.00;2.00;;;;;29.04;42.62;100262.53;5073950;28;45432;-77
2022/09/03 10:22:51;;;;;;;;;1.75;1.75;;;;;28.54;43.84;100255.78;5073567;28;45525;-78
2022/09/03 10:25:18;;;;;;;;;4.25;4.00;;;;;28.42;43.47;100257.84;5074315;28;45362;-78
2022/09/03 10:27:44;;;;;;;;;5.25;3.00;;;;;28.24;44.11;100260.56;5075116;28;45677;-78
2022/09/03 10:30:14;;;;;;;;;5.50;5.00;;;;;28.06;45.15;100263.25;5075578;28;47963;-78
2022/09/03 10:33:03;;;;;;;;;5.00;4.50;;;;;27.95;45.40;100275.16;5077836;28;45465;-77
2022/09/03 10:35:31;;;;;;;;;4.75;4.75;;;;;27.76;45.42;100277.94;5071543;28;45468;-75
2022/09/03 10:38:28;;;;;;;;;5.00;4.00;;;;;27.68;45.77;100273.28;5073994;28;45521;-76
2022/09/03 10:40:57;;;;;;;;;3.75;3.75;;;;;27.76;45.21;100278.78;5074018;28;45372;-74
2022/09/03 10:43:31;;;;;;;;;5.75;4.00;;;;;27.74;44.99;100279.94;5071540;28;45549;-76
2022/09/03 10:46:21;;;;;;;;;4.00;4.00;;;;;27.80;44.87;100277.50;5073206;27;45545;-78
2022/09/03 10:49:23;;;;;;;;;3.75;3.00;;;;;28.02;43.80;100272.72;5076209;28;45456;-77
2022/09/03 10:52:00;;;;;;;;;4.25;4.25;;;;;28.53;42.88;100275.81;5072513;28;45684;-76
2022/09/03 10:54:43;;;;;;;;;5.00;3.75;;;;;29.12;43.26;100269.88;5066584;28;45404;-76
2022/09/03 10:57:25;;;;;;;;;2.75;2.00;;;;;29.64;40.60;100271.75;5072845;28;45506;-77
2022/09/03 11:00:13;;;;;;;;;3.00;3.00;;;;;29.51;40.72;100261.34;5075513;28;45473;-76
2022/09/03 11:02:44;;;;;;;;;2.50;2.50;;;;;29.79;40.28;100262.00;5071387;28;45475;-75
2022/09/03 11:05:17;;;;;;;;;3.00;2.00;;;;;29.80;40.20;100263.69;5073695;28;45462;-79
2022/09/03 11:07:48;;;;;;;;;3.50;2.00;;;;;29.87;40.30;100259.31;5075072;28;45540;-78
2022/09/03 11:10:13;;;;;;;;;2.00;2.00;;;;;30.11;40.04;100247.66;5073337;27;45555;-77
2022/09/03 11:12:47;;;;;;;;;3.00;3.00;;;;;30.33;39.54;100252.66;5074850;28;45625;-73
2022/09/03 11:15:58;;;;;;;;;5.00;5.00;;;;;30.68;39.12;100245.22;5073080;28;45449;-74
2022/09/03 11:18:47;;;;;;;;;4.00;4.00;;;;;31.53;37.80;100250.25;5011576;28;45358;-74
2022/09/03 11:21:15;;;;;;;;;5.00;4.50;;;;;31.61;36.94;100242.09;5010200;28;45762;-75
2022/09/03 11:23:47;;;;;;;;;4.00;4.00;;;;;31.32;37.47;100243.50;5011313;28;45474;-77
2022/09/03 11:26:17;;;;;;;;;2.00;2.00;;;;;31.14;37.42;100260.09;5009636;28;45502;-75
2022/09/03 11:28:49;;;;;;;;;2.75;2.00;;;;;30.93;38.63;100260.56;5010557;28;45495;-76
2022/09/03 11:31:30;;;;;;;;;3.25;2.00;;;;;30.75;38.34;100251.72;5010686;28;45550;-75
2022/09/03 11:34:20;;;;;;;;;2.00;2.00;;;;;30.14;38.20;100257.38;5012449;28;46622;-74
2022/09/03 11:36:46;;;;;;;;;1.75;1.75;;;;;29.73;38.98;100240.84;5002145;28;45446;-76
2022/09/03 11:39:35;;;;;;;;;1.50;1.50;;;;;29.68;39.99;100254.94;5013357;28;45468;-75
2022/09/03 11:42:29;;;;;;;;;3.00;3.00;;;;;29.41;39.81;100255.97;5012693;28;45636;-77
2022/09/03 11:45:11;;;;;;;;;2.00;2.00;;;;;29.21;40.04;100244.47;4998537;28;45747;-76
2022/09/03 11:47:42;;;;;;;;;1.75;1.00;;;;;28.93;39.72;100249.19;5004766;28;45693;-75
2022/09/03 11:50:19;;;;;;;;;2.00;2.00;;;;;28.61;41.59;100254.19;5012535;28;45699;-77
2022/09/03 11:52:44;;;;;;;;;3.25;3.25;;;;;28.42;41.77;100257.00;5007510;28;45353;-76
2022/09/03 11:55:10;;;;;;;;;1.75;1.75;;;;;28.15;42.55;100253.31;5072720;28;46244;-76